createdAt,value
2022-10-25T00:01:47.491Z,18.15
2022-10-25T00:04:15.145Z,18.16
2022-10-25T00:06:42.265Z,18.12
2022-10-25T00:09:08.863Z,18.09
2022-10-25T00:11:35.869Z,18.05
2022-10-25T00:14:05.224Z,18.06
2022-10-25T00:16:35.189Z,18.07
2022-10-25T00:19:01.815Z,18.10
2022-10-25T00:21:28.402Z,18.06
2022-10-25T00:23:55.382Z,18.05
2022-10-25T00:26:22.026Z,17.95
2022-10-25T00:28:49.015Z,18.00
2022-10-25T00:31:17.290Z,18.00
2022-10-25T00:33:45.225Z,17.93
2022-10-25T00:36:18.326Z,17.89
2022-10-25T00:38:46.219Z,17.84
2022-10-25T00:41:19.201Z,17.80
2022-10-25T00:43:51.623Z,17.83
2022-10-25T00:46:18.082Z,17.76
2022-10-25T00:48:56.222Z,17.73
2022-10-25T00:51:29.016Z,17.68
2022-10-25T00:53:55.672Z,17.64
2022-10-25T00:56:28.052Z,17.66
2022-10-25T00:59:00.460Z,17.65
2022-10-25T01:01:27.602Z,17.75
2022-10-25T01:03:58.146Z,17.73
2022-10-25T01:06:32.049Z,17.67
2022-10-25T01:08:59.807Z,17.60
2022-10-25T01:11:26.295Z,17.55
2022-10-25T01:13:53.674Z,17.50
2022-10-25T01:16:58.449Z,17.46
2022-10-25T01:20:04.232Z,17.42
2022-10-25T01:22:42.221Z,17.44
2022-10-25T01:25:24.370Z,17.42
2022-10-25T01:28:18.348Z,17.34
2022-10-25T01:31:06.579Z,17.30
2022-10-25T01:33:56.950Z,17.30
2022-10-25T01:36:47.524Z,17.39
2022-10-25T01:39:20.480Z,17.33
2022-10-25T01:41:55.799Z,17.57
2022-10-25T01:44:49.805Z,17.52
2022-10-25T01:47:56.137Z,17.58
2022-10-25T01:50:32.786Z,17.71
2022-10-25T01:52:59.461Z,17.81
2022-10-25T01:55:53.365Z,17.71
2022-10-25T01:58:38.014Z,17.46
2022-10-25T02:01:26.917Z,17.37
2022-10-25T02:03:57.362Z,17.34
2022-10-25T02:06:47.146Z,17.23
2022-10-25T02:09:23.591Z,17.17
2022-10-25T02:11:53.054Z,17.17
2022-10-25T02:14:34.494Z,17.17
2022-10-25T02:17:11.407Z,17.19
2022-10-25T02:20:00.590Z,17.19
2022-10-25T02:22:31.812Z,17.22
2022-10-25T02:25:00.157Z,17.23
2022-10-25T02:27:28.149Z,17.21
2022-10-25T02:29:55.159Z,17.28
2022-10-25T02:32:22.070Z,17.36
2022-10-25T02:34:49.428Z,17.43
2022-10-25T02:37:16.919Z,17.48
2022-10-25T02:39:45.689Z,17.50
2022-10-25T02:42:12.498Z,17.67
2022-10-25T02:44:39.138Z,17.52
2022-10-25T02:47:05.781Z,17.37
2022-10-25T02:49:32.358Z,17.19
2022-10-25T02:51:58.880Z,17.10
2022-10-25T02:54:25.399Z,17.02
2022-10-25T02:56:52.968Z,16.92
2022-10-25T02:59:21.126Z,16.83
2022-10-25T03:01:48.175Z,16.78
2022-10-25T03:04:14.747Z,16.70
2022-10-25T03:06:41.278Z,16.65
2022-10-25T03:09:07.754Z,16.60
2022-10-25T03:11:34.363Z,16.59
2022-10-25T03:14:00.822Z,16.59
2022-10-25T03:16:27.296Z,16.55
2022-10-25T03:18:57.909Z,16.52
2022-10-25T03:21:25.160Z,16.51
2022-10-25T03:23:52.263Z,16.49
2022-10-25T03:26:19.203Z,16.57
2022-10-25T03:28:45.983Z,16.53
2022-10-25T03:31:14.528Z,16.44
2022-10-25T03:33:41.510Z,16.36
2022-10-25T03:36:08.157Z,16.36
2022-10-25T03:38:34.994Z,16.37
2022-10-25T03:41:01.514Z,16.50
2022-10-25T03:43:28.142Z,16.49
2022-10-25T03:45:54.636Z,16.52
2022-10-25T03:48:21.169Z,16.54
2022-10-25T03:50:47.761Z,16.53
2022-10-25T03:53:14.396Z,16.52
2022-10-25T03:55:42.077Z,16.48
2022-10-25T03:58:08.585Z,16.55
2022-10-25T04:00:35.201Z,16.59
2022-10-25T04:03:02.961Z,16.61
2022-10-25T04:05:30.639Z,16.61
2022-10-25T04:07:57.410Z,16.67
2022-10-25T04:10:25.287Z,16.58
2022-10-25T04:12:53.889Z,16.52
2022-10-25T04:15:23.251Z,16.48
2022-10-25T04:17:51.581Z,16.43
2022-10-25T04:20:18.872Z,16.44
2022-10-25T04:22:45.442Z,16.43
2022-10-25T04:25:12.089Z,16.61
2022-10-25T04:27:38.679Z,16.58
2022-10-25T04:30:05.567Z,16.53
2022-10-25T04:32:32.128Z,16.60
2022-10-25T04:34:58.597Z,16.52
2022-10-25T04:37:25.099Z,16.39
2022-10-25T04:39:51.803Z,16.31
2022-10-25T04:42:19.370Z,16.26
2022-10-25T04:44:45.954Z,16.48
2022-10-25T04:47:12.487Z,16.70
2022-10-25T04:49:39.113Z,16.68
2022-10-25T04:52:05.676Z,16.62
2022-10-25T04:54:32.203Z,16.52
2022-10-25T04:56:58.721Z,16.53
2022-10-25T04:59:25.255Z,16.38
2022-10-25T05:04:23.680Z,16.41
2022-10-25T05:06:50.169Z,16.44
2022-10-25T05:09:16.683Z,16.43
2022-10-25T05:11:43.431Z,16.45
2022-10-25T05:14:09.905Z,16.47
2022-10-25T05:16:36.421Z,16.48
2022-10-25T05:19:03.037Z,16.54
2022-10-25T05:21:30.786Z,16.58
2022-10-25T05:24:01.640Z,16.61
2022-10-25T05:26:29.354Z,16.54
2022-10-25T05:28:57.065Z,16.62
2022-10-25T05:31:25.873Z,16.49
2022-10-25T05:33:55.551Z,16.44
2022-10-25T05:36:22.106Z,16.38
2022-10-25T05:38:48.940Z,16.41
2022-10-25T05:41:17.493Z,16.45
2022-10-25T05:43:44.750Z,16.47
2022-10-25T05:46:13.191Z,16.49
2022-10-25T05:48:44.482Z,16.58
2022-10-25T05:54:12.119Z,16.65
2022-10-25T05:56:40.130Z,16.63
2022-10-25T05:59:09.429Z,16.61
2022-10-25T06:01:40.578Z,16.58
2022-10-25T06:04:07.931Z,16.54
2022-10-25T06:06:35.334Z,16.50
2022-10-25T06:09:02.030Z,16.62
2022-10-25T06:11:29.599Z,16.64
2022-10-25T06:13:56.850Z,16.51
2022-10-25T06:16:24.139Z,16.48
2022-10-25T06:18:50.997Z,16.48
2022-10-25T06:21:22.560Z,16.47
2022-10-25T06:23:49.827Z,16.44
2022-10-25T06:26:19.143Z,16.42
2022-10-25T06:28:45.726Z,16.39
2022-10-25T06:31:14.949Z,16.39
2022-10-25T06:33:41.888Z,16.38
2022-10-25T06:36:16.821Z,16.41
2022-10-25T06:38:44.893Z,16.43
2022-10-25T06:41:15.328Z,16.49
2022-10-25T06:43:41.965Z,16.59
2022-10-25T06:46:11.380Z,16.79
2022-10-25T06:48:37.883Z,16.84
2022-10-25T06:51:06.444Z,16.78
2022-10-25T06:53:33.288Z,16.71
2022-10-25T06:56:05.967Z,16.61
2022-10-25T06:58:35.240Z,16.58
2022-10-25T07:01:16.107Z,16.46
2022-10-25T07:03:43.368Z,16.44
2022-10-25T07:06:09.836Z,16.45
2022-10-25T07:08:38.111Z,16.52
2022-10-25T07:11:05.048Z,16.57
2022-10-25T07:13:33.368Z,16.56
2022-10-25T07:16:04.914Z,16.52
2022-10-25T07:18:32.563Z,16.48
2022-10-25T07:21:10.717Z,16.56
2022-10-25T07:23:42.047Z,16.58
2022-10-25T07:26:12.819Z,16.59
2022-10-25T07:28:39.545Z,16.64
2022-10-25T07:31:06.892Z,16.61
2022-10-25T07:33:33.513Z,16.63
2022-10-25T07:36:06.537Z,16.75
2022-10-25T07:38:37.407Z,16.82
2022-10-25T07:41:03.990Z,16.86
2022-10-25T07:43:31.094Z,16.97
2022-10-25T07:45:57.615Z,16.94
2022-10-25T07:48:24.146Z,16.98
2022-10-25T07:50:50.843Z,17.03
2022-10-25T07:53:17.479Z,17.01
2022-10-25T07:55:49.185Z,17.08
2022-10-25T07:58:15.935Z,17.14
2022-10-25T08:00:42.490Z,17.10
2022-10-25T08:03:09.035Z,17.11
2022-10-25T08:05:35.604Z,17.26
2022-10-25T08:08:02.310Z,17.37
2022-10-25T08:10:28.847Z,17.42
2022-10-25T08:12:56.345Z,17.45
2022-10-25T08:15:23.111Z,17.42
2022-10-25T08:17:57.643Z,17.42
2022-10-25T08:20:42.999Z,17.37
2022-10-25T08:23:10.836Z,17.22
2022-10-25T08:25:37.348Z,17.29
2022-10-25T08:28:04.855Z,17.40
2022-10-25T08:30:31.358Z,17.50
2022-10-25T08:32:58.834Z,17.49
2022-10-25T08:35:25.399Z,17.74
2022-10-25T08:37:51.900Z,17.72
2022-10-25T08:40:26.398Z,17.67
2022-10-25T08:43:23.074Z,17.70
2022-10-25T08:46:05.229Z,17.77
2022-10-25T08:48:40.667Z,17.92
2022-10-25T08:51:28.293Z,18.07
2022-10-25T08:54:01.524Z,18.17
2022-10-25T08:56:29.455Z,18.33
2022-10-25T08:59:00.154Z,18.33
2022-10-25T09:01:41.394Z,18.40
2022-10-25T09:04:09.030Z,18.52
2022-10-25T09:06:48.009Z,18.57
2022-10-25T09:09:35.247Z,18.62
2022-10-25T09:12:20.679Z,18.73
2022-10-25T09:14:53.128Z,18.77
2022-10-25T09:17:31.350Z,18.85
2022-10-25T09:20:11.382Z,18.73
2022-10-25T09:22:49.182Z,18.88
2022-10-25T09:25:41.682Z,18.93
2022-10-25T09:28:19.054Z,19.03
2022-10-25T09:30:46.231Z,19.14
2022-10-25T09:33:17.966Z,19.32
2022-10-25T09:35:48.539Z,19.41
2022-10-25T09:38:22.217Z,19.48
2022-10-25T09:41:01.137Z,19.56
2022-10-25T09:43:45.700Z,19.66
2022-10-25T09:46:14.802Z,19.72
2022-10-25T09:48:55.322Z,19.98
2022-10-25T09:51:34.549Z,19.96
2022-10-25T09:54:09.361Z,20.13
2022-10-25T09:56:35.843Z,20.62
2022-10-25T09:59:04.393Z,20.94
2022-10-25T10:01:33.486Z,21.05
2022-10-25T10:04:36.348Z,21.20
2022-10-25T10:07:08.615Z,21.16
2022-10-25T10:09:38.346Z,21.22
2022-10-25T10:12:12.454Z,21.25
2022-10-25T10:14:44.546Z,21.18
2022-10-25T10:17:17.162Z,21.32
2022-10-25T10:19:44.307Z,21.40
2022-10-25T10:22:16.723Z,21.40
2022-10-25T10:25:00.888Z,21.53
2022-10-25T10:27:28.745Z,21.56
2022-10-25T10:30:00.760Z,21.66
2022-10-25T10:32:31.951Z,21.55
2022-10-25T10:34:59.098Z,21.66
2022-10-25T10:37:28.135Z,21.67
2022-10-25T10:40:07.099Z,21.69
2022-10-25T10:42:36.062Z,21.73
2022-10-25T10:45:08.397Z,21.68
2022-10-25T10:47:38.198Z,21.80
2022-10-25T10:50:23.397Z,21.90
2022-10-25T10:52:55.213Z,22.01
2022-10-25T10:55:34.956Z,22.21
2022-10-25T10:58:04.587Z,22.25
2022-10-25T11:00:33.545Z,22.39
2022-10-25T11:03:00.586Z,22.64
2022-10-25T11:05:34.871Z,22.69
2022-10-25T11:08:16.695Z,22.73
2022-10-25T11:10:43.315Z,22.93
2022-10-25T11:13:09.851Z,23.01
2022-10-25T11:16:01.920Z,23.12
2022-10-25T11:18:53.309Z,23.16
2022-10-25T11:21:39.505Z,23.13
2022-10-25T11:24:28.253Z,23.18
2022-10-25T11:27:11.790Z,23.28
2022-10-25T11:29:49.982Z,23.33
2022-10-25T11:32:46.442Z,23.37
2022-10-25T11:35:32.159Z,23.44
2022-10-25T11:38:03.083Z,23.26
2022-10-25T11:40:34.948Z,23.22
2022-10-25T11:43:30.306Z,23.18
2022-10-25T11:46:05.600Z,23.35
2022-10-25T11:48:51.747Z,23.48
2022-10-25T11:51:44.345Z,23.48
2022-10-25T11:54:43.082Z,23.51
2022-10-25T11:57:29.517Z,23.54
2022-10-25T12:00:18.646Z,23.47
2022-10-25T12:03:15.928Z,23.68
2022-10-25T12:05:53.171Z,23.70
2022-10-25T12:08:30.986Z,23.75
2022-10-25T12:11:13.828Z,23.84
2022-10-25T12:13:48.358Z,23.88
2022-10-25T12:16:18.659Z,23.99
2022-10-25T12:18:51.156Z,23.99
2022-10-25T12:21:24.245Z,24.06
2022-10-25T12:23:53.071Z,24.13
2022-10-25T12:26:28.551Z,24.12
2022-10-25T12:28:59.187Z,24.10
2022-10-25T12:31:29.023Z,24.15
2022-10-25T12:34:02.198Z,24.15
2022-10-25T12:36:38.151Z,24.18
2022-10-25T12:39:14.022Z,24.05
2022-10-25T12:41:44.988Z,24.00
2022-10-25T12:44:29.546Z,24.06
2022-10-25T12:47:18.245Z,23.99
2022-10-25T12:50:02.795Z,23.99
2022-10-25T12:52:36.724Z,24.09
2022-10-25T12:55:21.718Z,24.14
2022-10-25T12:58:00.804Z,24.23
2022-10-25T13:00:31.966Z,24.18
2022-10-25T13:03:18.534Z,24.29
2022-10-25T13:05:55.670Z,24.22
2022-10-25T13:08:24.570Z,24.26
2022-10-25T13:11:02.881Z,24.10
2022-10-25T13:13:52.063Z,24.07
2022-10-25T13:16:30.001Z,24.03
2022-10-25T13:19:35.850Z,23.98
2022-10-25T13:22:13.155Z,24.03
2022-10-25T13:24:41.471Z,24.12
2022-10-25T13:27:19.663Z,24.16
2022-10-25T13:30:07.389Z,24.13
2022-10-25T13:32:38.770Z,24.22
2022-10-25T13:35:21.186Z,24.36
2022-10-25T13:37:50.966Z,24.47
2022-10-25T13:40:19.990Z,24.46
2022-10-25T13:42:49.451Z,24.48
2022-10-25T13:45:31.283Z,24.39
2022-10-25T13:48:10.847Z,24.44
2022-10-25T13:50:53.084Z,24.54
2022-10-25T13:53:22.648Z,24.58
2022-10-25T13:56:00.451Z,24.57
2022-10-25T13:59:46.978Z,-139.91
2022-10-25T14:03:17.235Z,-139.91
2022-10-25T14:06:54.759Z,-139.91
2022-10-25T14:10:33.547Z,-139.91
2022-10-25T14:14:23.561Z,-139.91
2022-10-25T14:17:53.216Z,-139.91
2022-10-25T14:21:26.122Z,-139.91
2022-10-25T14:24:53.694Z,-139.91
2022-10-25T14:28:30.078Z,-139.91
2022-10-25T14:31:56.952Z,-139.91
2022-10-25T14:35:24.355Z,-139.91
2022-10-25T14:38:52.774Z,-139.91
2022-10-25T14:42:25.547Z,-139.91
2022-10-25T14:46:02.989Z,-139.91
2022-10-25T14:49:28.778Z,-139.91
2022-10-25T14:53:01.145Z,-139.91
2022-10-25T14:56:46.720Z,-139.91
2022-10-25T15:00:24.889Z,-139.91
2022-10-25T15:03:59.159Z,-139.91
2022-10-25T15:07:30.535Z,-139.91
2022-10-25T15:11:00.841Z,-139.91
2022-10-25T15:14:31.116Z,-139.91
2022-10-25T15:18:00.140Z,-139.91
2022-10-25T15:21:41.995Z,-139.91
2022-10-25T15:25:23.470Z,-139.91
2022-10-25T15:28:51.357Z,-139.91
2022-10-25T15:32:20.633Z,-139.91
2022-10-25T15:35:53.189Z,-139.91
2022-10-25T15:39:28.353Z,-139.91
2022-10-25T15:42:53.384Z,-139.91
2022-10-25T15:46:33.217Z,-139.91
2022-10-25T15:49:59.377Z,-139.91
2022-10-25T15:53:25.441Z,-139.91
2022-10-25T15:56:54.111Z,-139.91
2022-10-25T16:00:22.955Z,-139.91
2022-10-25T16:03:51.130Z,-139.91
2022-10-25T16:07:16.517Z,-139.91
2022-10-25T16:10:42.206Z,-139.91
2022-10-25T16:14:11.917Z,-139.91
2022-10-25T16:17:36.910Z,-139.91
2022-10-25T16:21:02.018Z,-139.91
2022-10-25T16:24:27.204Z,-139.91
2022-10-25T16:27:53.007Z,-139.91
2022-10-25T16:31:17.949Z,-139.91
2022-10-25T16:34:46.164Z,-139.91
2022-10-25T16:38:11.328Z,-139.91
2022-10-25T16:41:37.584Z,-139.91
2022-10-25T16:45:03.824Z,-139.91
2022-10-25T16:48:29.784Z,-139.91
2022-10-25T16:51:54.756Z,-139.91
2022-10-25T16:55:20.360Z,-139.91
2022-10-25T16:58:45.363Z,-139.91
2022-10-25T17:02:22.940Z,-139.91
2022-10-25T17:05:48.014Z,-139.91
2022-10-25T17:09:13.428Z,-139.91
2022-10-25T17:12:42.514Z,-139.91
2022-10-25T17:16:09.168Z,-139.91
2022-10-25T17:19:35.174Z,-139.91
2022-10-25T17:23:00.236Z,-139.91
2022-10-25T17:26:25.542Z,-139.91
2022-10-25T17:29:50.526Z,-139.91
2022-10-25T17:33:15.558Z,-139.91
2022-10-25T17:36:40.992Z,-139.91
2022-10-25T17:40:06.482Z,-139.91
2022-10-25T17:43:31.658Z,-139.91
2022-10-25T17:47:02.329Z,-139.91
2022-10-25T17:50:28.215Z,-139.91
2022-10-25T17:53:54.361Z,-139.91
2022-10-25T17:57:20.058Z,-139.91
2022-10-25T18:00:45.598Z,-139.91
2022-10-25T18:04:11.517Z,-139.91
2022-10-25T18:07:36.516Z,-139.91
2022-10-25T18:11:07.650Z,-139.91
2022-10-25T18:14:32.704Z,-139.91
2022-10-25T18:17:57.750Z,-139.91
2022-10-25T18:21:22.910Z,-139.91
2022-10-25T18:24:48.301Z,-139.91
2022-10-25T18:28:13.311Z,-139.91
2022-10-25T18:31:38.417Z,-139.91
2022-10-25T18:35:03.588Z,-139.91
2022-10-25T18:38:28.709Z,-139.91
2022-10-25T18:41:55.877Z,-139.91
2022-10-25T18:45:23.461Z,-139.91
2022-10-25T18:48:51.090Z,-139.91
2022-10-25T18:52:17.049Z,-139.91
2022-10-25T18:55:45.746Z,-139.91
2022-10-25T18:59:11.277Z,-139.91
2022-10-25T19:02:37.913Z,-139.91
2022-10-25T19:06:03.580Z,-139.91
2022-10-25T19:09:28.874Z,-139.91
2022-10-25T19:12:53.865Z,-139.91
2022-10-25T19:16:18.818Z,-139.91
2022-10-25T19:19:43.887Z,-139.91
2022-10-25T19:23:09.372Z,-139.91
2022-10-25T19:26:34.738Z,-139.91
2022-10-25T19:29:59.738Z,-139.91
2022-10-25T19:33:24.981Z,-139.91
2022-10-25T19:36:51.936Z,-139.91
2022-10-25T19:40:17.500Z,-139.91
2022-10-25T19:43:45.702Z,-139.91
2022-10-25T19:47:11.679Z,-139.91
2022-10-25T19:50:38.186Z,-139.91
2022-10-25T19:54:03.310Z,-139.91
2022-10-25T19:57:28.338Z,-139.91
2022-10-25T20:01:04.795Z,-139.91
2022-10-25T20:04:30.039Z,-139.91
2022-10-25T20:07:55.383Z,-139.91
2022-10-25T20:11:21.183Z,-139.91
2022-10-25T20:14:46.144Z,-139.91
2022-10-25T20:18:11.160Z,-139.91
2022-10-25T20:21:36.603Z,-139.91
2022-10-25T20:25:07.224Z,-139.91
2022-10-25T20:28:33.127Z,-139.91
2022-10-25T20:31:57.998Z,-139.91
2022-10-25T20:35:26.183Z,-139.91
2022-10-25T20:38:52.308Z,-139.91
2022-10-25T20:42:18.501Z,-139.91
2022-10-25T20:45:47.986Z,-139.91
2022-10-25T20:49:13.027Z,-139.91
2022-10-25T20:52:47.668Z,-139.91
2022-10-25T20:56:13.725Z,-139.91
2022-10-25T20:59:38.696Z,-139.91
2022-10-25T21:03:03.686Z,-139.91
2022-10-25T21:06:29.017Z,-139.91
2022-10-25T21:09:54.029Z,-139.91
2022-10-25T21:13:19.178Z,-139.91
2022-10-25T21:16:44.174Z,-139.91
2022-10-25T21:20:09.522Z,-139.91
2022-10-25T21:23:35.093Z,-139.91
2022-10-25T21:27:01.161Z,-139.91
2022-10-25T21:30:26.199Z,-139.91
2022-10-25T21:33:53.167Z,-139.91
2022-10-25T21:37:19.123Z,-139.91
2022-10-25T21:40:44.224Z,-139.91
2022-10-25T21:47:39.083Z,-139.91
2022-10-25T21:51:05.377Z,-139.91
2022-10-25T21:54:30.502Z,-139.91
2022-10-25T21:57:56.749Z,-139.91
2022-10-25T22:01:23.642Z,-139.91
2022-10-25T22:04:48.715Z,-139.91
2022-10-25T22:08:14.435Z,-139.91
2022-10-25T22:11:39.574Z,-139.91
2022-10-25T22:15:06.850Z,-139.91
2022-10-25T22:18:32.282Z,-139.91
2022-10-25T22:22:01.488Z,-139.91
2022-10-25T22:25:26.560Z,-139.91
2022-10-25T22:28:55.602Z,-139.91
2022-10-25T22:32:21.022Z,-139.91
2022-10-25T22:35:46.179Z,-139.91
2022-10-25T22:39:11.239Z,-139.91
2022-10-25T22:42:36.253Z,-139.91
2022-10-25T22:46:02.184Z,-139.91
2022-10-25T22:49:27.037Z,-139.91
2022-10-25T22:52:52.061Z,-139.91
2022-10-25T22:56:20.584Z,-139.91
2022-10-25T22:59:47.153Z,-139.91
2022-10-25T23:03:12.200Z,-139.91
2022-10-25T23:06:38.715Z,-139.91
2022-10-25T23:10:05.459Z,-139.91
2022-10-25T23:13:34.352Z,-139.91
2022-10-25T23:17:00.059Z,-139.91
2022-10-25T23:20:25.045Z,-139.91
2022-10-25T23:23:50.953Z,-139.91
2022-10-25T23:27:15.846Z,-139.91
2022-10-25T23:30:41.974Z,-139.91
2022-10-25T23:34:07.183Z,-139.91
2022-10-25T23:37:32.145Z,-139.91
2022-10-25T23:40:57.221Z,-139.91
2022-10-25T23:44:22.560Z,-139.91
2022-10-25T23:47:48.073Z,-139.91
2022-10-25T23:51:14.547Z,-139.91
2022-10-25T23:54:39.934Z,-139.91
2022-10-25T23:58:05.213Z,-139.91
